»·PEaware :: DAL2339 KSLC-KSEA

DAL2339 :: KSLC-KSEA

FLIGHT INFORMATION

Flight Status: Arrived
Operator:
Delta Air Lines
More flights by this operator :: More flights under this callsign
Pilot: Joe P. (13940)
Aircraft: CANADAIR CL-600 CRJ-900
(CRJ9)
More flights by this aircraft type
Origin: KSLC Salt Lake City Intl
United States
Destination: KSEA Seattle-Tacoma Intl
United States
More flights between these airports :: More routes between these airports
Route: +BOI J163 BKE DCT PDT CHINS2
File this flight plan on PilotEdge
Remarks: SEL / ABCD CYVR -PBN / A1B1C1D1L1O1S1 NAV / RNVD1E2A1 DOF / 171229 REG / N806SK EET / KZSE0101 RVR / 200
Altitude:
(Current/Filed)
320ft
Speed:
(Current/Filed)
467kts
Departed: 29-Dec-17 08:02 AM
Arrived: 29-Dec-17 09:57 AM
Distance/Time
Traveled:
597nm/1:54
Distance/Time
To Go:
Arrived

Flight Plot

Page will automatically refresh every two minutes.

Flight plan parsing failed; only flown route is shown


Map Options




Map Legend


Flown Route
Filed Route
Departure Airport
Arrival Airport
Navaid (VOR, NDB)
Fix

Horizontal Profiles

Position Reports

Time Latitude Longitude Heading Altitude Ground
Speed
29-Dec-17 07:29 40.786928 -111.986794 205 4234ft 0kts
29-Dec-17 07:30 40.786928 -111.986794 205 4234ft 0kts
29-Dec-17 07:31 40.786928 -111.986794 205 4234ft 0kts
29-Dec-17 07:32 40.786928 -111.986794 205 4234ft 0kts
29-Dec-17 07:33 40.786928 -111.986794 205 4234ft 0kts
29-Dec-17 07:34 40.786928 -111.986794 205 4234ft 0kts
29-Dec-17 07:35 40.786928 -111.986794 205 4234ft 0kts
29-Dec-17 07:36 40.786928 -111.986794 205 4234ft 0kts
29-Dec-17 07:37 40.786928 -111.986794 205 4234ft 0kts
29-Dec-17 07:38 40.786928 -111.986794 205 4234ft 0kts
29-Dec-17 07:39 40.786928 -111.986794 205 4234ft 0kts
29-Dec-17 07:40 40.786928 -111.986794 205 4234ft 0kts
29-Dec-17 07:41 40.786928 -111.986794 205 4234ft 0kts
29-Dec-17 07:42 40.786928 -111.986794 205 4234ft 0kts
29-Dec-17 07:43 40.786928 -111.986794 205 4234ft 0kts
29-Dec-17 07:44 40.786928 -111.986794 205 4234ft 0kts
29-Dec-17 07:45 40.786928 -111.986794 205 4234ft 0kts
29-Dec-17 07:46 40.786928 -111.986794 205 4234ft 0kts
29-Dec-17 07:47 40.786928 -111.986794 205 4234ft 0kts
29-Dec-17 07:48 40.786928 -111.986794 205 4234ft 0kts
29-Dec-17 07:49 40.786928 -111.986794 205 4234ft 0kts
29-Dec-17 07:50 40.786928 -111.986794 205 4234ft 0kts
29-Dec-17 07:51 40.786928 -111.986794 205 4234ft 0kts
29-Dec-17 07:52 40.786928 -111.986794 205 4234ft 0kts
29-Dec-17 07:53 40.786945 -111.986784 206 4234ft 1kts
29-Dec-17 07:54 40.787294 -111.986234 285 4234ft 2kts
29-Dec-17 07:55 40.787151 -111.985837 296 4234ft 0kts
29-Dec-17 07:56 40.787151 -111.985837 296 4234ft 0kts
29-Dec-17 07:57 40.787151 -111.985837 296 4234ft 0kts
29-Dec-17 07:58 40.787197 -111.985958 296 4234ft 1kts
29-Dec-17 07:59 40.787572 -111.987054 277 4234ft 5kts
29-Dec-17 08:00 40.786345 -111.989597 226 4234ft 11kts
29-Dec-17 08:01 40.784161 -111.993410 260 4234ft 12kts
29-Dec-17 08:02 40.781807 -111.994198 185 4234ft 12kts
29-Dec-17 08:03 40.777624 -111.994175 175 4234ft 17kts
29-Dec-17 08:04 40.775380 -111.994116 249 4234ft 0kts
29-Dec-17 08:05 40.775379 -111.994119 249 4234ft 0kts
29-Dec-17 08:06 40.775260 -111.994632 258 4234ft 4kts
29-Dec-17 08:07 40.775872 -111.995709 358 4234ft 3kts
29-Dec-17 08:08 40.801570 -111.998487 356 4639ft 167kts
29-Dec-17 08:09 40.830644 -112.041930 292 6312ft 164kts
29-Dec-17 08:26 41.810502 -113.429829 309 32259ft 366kts
29-Dec-17 08:27 41.888821 -113.551407 308 32252ft 372kts
29-Dec-17 08:28 41.945186 -113.639886 308 32246ft 376kts
29-Dec-17 08:29 42.013751 -113.747447 308 32241ft 379kts
29-Dec-17 08:30 42.082457 -113.855712 308 32240ft 382kts
29-Dec-17 08:31 42.151393 -113.964778 308 32238ft 383kts
29-Dec-17 08:32 42.220751 -114.074893 308 32236ft 385kts
29-Dec-17 08:33 42.290121 -114.185125 308 32238ft 386kts
29-Dec-17 08:34 42.359818 -114.296072 307 32240ft 386kts
29-Dec-17 08:35 42.429007 -114.407253 307 32242ft 387kts
29-Dec-17 08:36 42.498246 -114.518673 308 32243ft 387kts
29-Dec-17 08:37 42.570031 -114.628047 308 32240ft 387kts
29-Dec-17 08:38 42.640822 -114.738062 308 32238ft 387kts
29-Dec-17 08:39 42.711442 -114.848251 307 32238ft 387kts
29-Dec-17 08:40 42.782147 -114.958932 307 32234ft 386kts
29-Dec-17 08:41 42.852512 -115.069390 307 32235ft 386kts
29-Dec-17 08:42 42.922995 -115.180437 307 32236ft 386kts
29-Dec-17 08:43 42.993105 -115.291055 307 32237ft 385kts
29-Dec-17 08:44 43.062818 -115.401793 307 32238ft 384kts
29-Dec-17 08:45 43.132423 -115.512771 306 32240ft 383kts
29-Dec-17 08:46 43.201538 -115.623525 307 32240ft 382kts
29-Dec-17 08:47 43.270620 -115.734135 306 32241ft 382kts
29-Dec-17 08:48 43.339740 -115.845110 306 32240ft 381kts
29-Dec-17 08:49 43.408156 -115.956028 306 32241ft 380kts
29-Dec-17 08:50 43.476526 -116.067345 306 32247ft 380kts
29-Dec-17 08:51 43.544291 -116.178662 306 32252ft 379kts
29-Dec-17 08:52 43.622907 -116.277128 314 32254ft 384kts
29-Dec-17 08:53 43.702810 -116.374749 312 32258ft 382kts
29-Dec-17 08:54 43.782397 -116.472454 312 32261ft 383kts
29-Dec-17 08:55 43.861898 -116.570477 312 32272ft 383kts
29-Dec-17 08:56 43.941653 -116.669237 312 32282ft 383kts
29-Dec-17 08:57 44.021066 -116.767801 312 32292ft 383kts
29-Dec-17 08:58 44.100869 -116.867020 312 32296ft 383kts
29-Dec-17 08:59 44.180134 -116.966230 311 32294ft 384kts
29-Dec-17 09:00 44.259429 -117.065904 311 32286ft 384kts
29-Dec-17 09:01 44.339106 -117.166301 311 32271ft 385kts
29-Dec-17 09:02 44.418613 -117.266822 311 32249ft 387kts
29-Dec-17 09:03 44.498814 -117.368286 311 32227ft 388kts
29-Dec-17 09:04 44.578666 -117.469889 311 32208ft 388kts
29-Dec-17 09:05 44.658330 -117.572016 311 32206ft 388kts
29-Dec-17 09:06 44.738115 -117.674656 311 32205ft 388kts
29-Dec-17 09:07 44.817270 -117.777734 310 32203ft 387kts
29-Dec-17 09:08 44.897227 -117.879955 311 32202ft 388kts
29-Dec-17 09:09 44.976806 -117.983518 311 32191ft 388kts
29-Dec-17 09:10 45.056283 -118.087118 310 32164ft 390kts
29-Dec-17 09:11 45.136285 -118.191716 310 32149ft 391kts
29-Dec-17 09:12 45.216237 -118.296334 310 32141ft 392kts
29-Dec-17 09:13 45.296167 -118.401464 310 32125ft 392kts
29-Dec-17 09:14 45.376176 -118.507395 310 32108ft 392kts
29-Dec-17 09:15 45.455829 -118.613229 309 32103ft 392kts
29-Dec-17 09:16 45.535017 -118.718992 309 32096ft 387kts
29-Dec-17 09:17 45.613395 -118.823663 309 32086ft 382kts
29-Dec-17 09:18 45.690128 -118.927442 307 32084ft 377kts
29-Dec-17 09:19 45.758732 -119.038768 302 32096ft 369kts
29-Dec-17 09:20 45.824708 -119.151291 303 32117ft 368kts
29-Dec-17 09:21 45.891139 -119.263797 303 32124ft 370kts
29-Dec-17 09:22 45.957367 -119.376711 303 32130ft 367kts
29-Dec-17 09:23 46.022802 -119.488693 302 32145ft 365kts
29-Dec-17 09:24 46.087970 -119.600331 302 32157ft 362kts
29-Dec-17 09:25 46.152192 -119.711365 302 32162ft 360kts
29-Dec-17 09:26 46.215991 -119.822229 303 32161ft 359kts
29-Dec-17 09:27 46.279814 -119.933216 301 32156ft 357kts
29-Dec-17 09:28 46.341943 -120.040842 301 31321ft 337kts
29-Dec-17 09:29 46.401155 -120.145165 301 29313ft 331kts
29-Dec-17 09:30 46.459150 -120.247171 301 27472ft 325kts
29-Dec-17 09:31 46.515828 -120.347395 301 25693ft 318kts
29-Dec-17 09:32 46.571294 -120.446534 300 24041ft 311kts
29-Dec-17 09:33 46.620281 -120.548107 297 22534ft 303kts
29-Dec-17 09:34 46.667930 -120.647914 298 21121ft 298kts
29-Dec-17 09:35 46.714854 -120.746423 298 19786ft 292kts
29-Dec-17 09:36 46.760715 -120.843247 298 18571ft 287kts
29-Dec-17 09:37 46.804940 -120.938675 298 17530ft 280kts
29-Dec-17 09:38 46.849263 -121.031559 298 16486ft 277kts
29-Dec-17 09:39 46.892752 -121.124118 298 15496ft 275kts
29-Dec-17 09:40 46.935861 -121.216546 298 14575ft 273kts
29-Dec-17 09:41 46.978543 -121.308172 300 13706ft 273kts
29-Dec-17 09:42 47.030543 -121.388735 297 12802ft 270kts
29-Dec-17 09:43 47.070896 -121.481777 297 12592ft 270kts
29-Dec-17 09:44 47.111712 -121.573955 296 12434ft 266kts
29-Dec-17 09:45 47.151160 -121.663165 296 12199ft 255kts
29-Dec-17 09:46 47.187269 -121.745080 296 10596ft 233kts
29-Dec-17 09:47 47.222602 -121.826109 297 9739ft 235kts
29-Dec-17 09:48 47.258391 -121.907926 297 8917ft 239kts
29-Dec-17 09:49 47.294348 -121.990413 297 8236ft 239kts
29-Dec-17 09:50 47.330176 -122.073133 297 7607ft 238kts
29-Dec-17 09:51 47.369251 -122.151100 332 7055ft 247kts
29-Dec-17 09:52 47.434823 -122.164855 347 6627ft 233kts
29-Dec-17 09:53 47.499250 -122.165448 359 5824ft 232kts
29-Dec-17 09:54 47.562538 -122.164542 358 4748ft 224kts
29-Dec-17 09:55 47.624359 -122.169540 348 3699ft 221kts
29-Dec-17 09:56 47.656444 -122.229489 267 3128ft 208kts
29-Dec-17 09:57 47.655710 -122.314513 248 2951ft 197kts
29-Dec-17 09:58 47.615426 -122.313867 162 3003ft 150kts
29-Dec-17 09:59 47.576873 -122.305533 176 2734ft 144kts
29-Dec-17 10:00 47.535362 -122.307178 181 1831ft 135kts
29-Dec-17 10:01 47.494733 -122.307410 178 1101ft 154kts
29-Dec-17 10:02 47.454047 -122.307869 178 440ft 114kts
29-Dec-17 10:03 47.446024 -122.307251 113 440ft 0kts
29-Dec-17 10:04 47.446022 -122.307246 113 440ft 0kts
29-Dec-17 10:05 47.446021 -122.307242 113 440ft 0kts
29-Dec-17 10:06 47.445556 -122.306357 166 440ft 12kts
29-Dec-17 10:07 47.440797 -122.306367 180 440ft 14kts
29-Dec-17 10:08 47.439741 -122.303345 76 440ft 9kts
29-Dec-17 10:09 47.441276 -122.302141 345 440ft 5kts
29-Dec-17 10:10 47.441797 -122.301707 42 440ft 0kts
29-Dec-17 10:11 47.441808 -122.301692 42 440ft 0kts
29-Dec-17 10:12 47.441810 -122.301690 42 440ft 0kts
29-Dec-17 10:13 47.441811 -122.301689 42 440ft 0kts
29-Dec-17 10:14 47.441811 -122.301688 42 440ft 0kts
29-Dec-17 10:15 47.441812 -122.301687 42 440ft 0kts

Navigation Log

Ident Type
Flight plan parsing failed, navigation log unavailable